createdAt,value
2019-04-11T00:00:23.592Z,9.70
2019-04-11T00:02:53.169Z,11.70
2019-04-11T00:05:22.979Z,9.95
2019-04-11T00:07:52.220Z,11.88
2019-04-11T00:10:21.032Z,9.40
2019-04-11T00:12:51.136Z,12.85
2019-04-11T00:15:20.322Z,13.10
2019-04-11T00:17:50.197Z,11.35
2019-04-11T00:20:20.102Z,13.68
2019-04-11T00:22:49.920Z,8.60
2019-04-11T00:25:19.811Z,12.80
2019-04-11T00:27:48.937Z,12.05
2019-04-11T00:30:18.243Z,13.03
2019-04-11T00:32:46.886Z,10.40
2019-04-11T00:35:15.590Z,11.95
2019-04-11T00:37:45.216Z,11.68
2019-04-11T00:40:15.154Z,13.48
2019-04-11T00:42:45.044Z,13.25
2019-04-11T00:45:15.753Z,12.58
2019-04-11T00:47:44.978Z,10.65
2019-04-11T00:50:14.780Z,11.08
2019-04-11T00:52:43.966Z,10.18
2019-04-11T00:55:13.367Z,11.10
2019-04-11T00:57:43.161Z,9.70
2019-04-11T01:00:13.127Z,11.05
2019-04-11T01:02:43.269Z,11.00
2019-04-11T01:05:12.942Z,10.48
2019-04-11T01:07:42.824Z,12.00
2019-04-11T01:10:12.184Z,13.08
2019-04-11T01:12:40.899Z,11.20
2019-04-11T01:15:11.438Z,10.93
2019-04-11T01:17:41.234Z,10.10
2019-04-11T01:20:11.245Z,14.55
2019-04-11T01:22:40.502Z,11.83
2019-04-11T01:25:10.456Z,13.60
2019-04-11T01:27:39.965Z,13.48
2019-04-11T01:30:11.938Z,11.75
2019-04-11T01:32:40.878Z,12.53
2019-04-11T01:35:09.575Z,13.10
2019-04-11T01:37:39.850Z,14.03
2019-04-11T01:40:09.840Z,13.32
2019-04-11T01:42:39.644Z,12.23
2019-04-11T01:45:09.548Z,14.93
2019-04-11T01:47:46.898Z,15.25
2019-04-11T01:50:17.431Z,11.68
2019-04-11T01:52:46.681Z,12.13
2019-04-11T01:55:16.390Z,13.10
2019-04-11T01:57:45.027Z,13.43
2019-04-11T02:00:17.708Z,13.00
2019-04-11T02:02:56.984Z,14.20
2019-04-11T02:05:27.444Z,13.35
2019-04-11T02:07:56.157Z,15.20
2019-04-11T02:10:24.809Z,12.93
2019-04-11T02:12:53.405Z,15.48
2019-04-11T02:15:24.026Z,16.70
2019-04-11T02:17:52.956Z,12.88
2019-04-11T02:20:21.539Z,12.95
2019-04-11T02:22:52.866Z,16.50
2019-04-11T02:25:24.727Z,11.95
2019-04-11T02:27:53.450Z,14.63
2019-04-11T02:30:22.742Z,14.83
2019-04-11T02:32:53.437Z,12.98
2019-04-11T02:35:23.806Z,16.07
2019-04-11T02:37:54.699Z,13.10
2019-04-11T02:40:24.558Z,16.40
2019-04-11T02:42:54.901Z,12.25
2019-04-11T02:45:36.318Z,14.40
2019-04-11T02:47:56.341Z,14.13
2019-04-11T02:50:26.488Z,13.15
2019-04-11T02:52:56.678Z,13.48
2019-04-11T02:55:25.458Z,14.18
2019-04-11T02:57:54.415Z,12.23
2019-04-11T03:00:24.435Z,15.23
2019-04-11T03:02:53.560Z,12.88
2019-04-11T03:05:22.582Z,13.00
2019-04-11T03:07:51.548Z,12.63
2019-04-11T03:10:21.010Z,18.50
2019-04-11T03:12:50.147Z,16.73
2019-04-11T03:15:32.097Z,14.30
2019-04-11T03:17:54.848Z,11.05
2019-04-11T03:20:28.989Z,13.65
2019-04-11T03:22:57.025Z,13.80
2019-04-11T03:25:22.552Z,14.45
2019-04-11T03:27:51.734Z,17.57
2019-04-11T03:30:34.827Z,12.05
2019-04-11T03:38:18.803Z,14.38
2019-04-11T03:40:43.837Z,14.83
2019-04-11T03:43:08.895Z,15.95
2019-04-11T03:45:47.992Z,13.30
2019-04-11T03:48:10.501Z,15.88
2019-04-11T03:50:30.519Z,15.13
2019-04-11T03:53:00.102Z,14.87
2019-04-11T03:55:30.718Z,17.80
2019-04-11T03:58:01.011Z,15.15
2019-04-11T04:00:35.446Z,14.15
2019-04-11T04:03:01.491Z,15.35
2019-04-11T04:05:36.175Z,14.68
2019-04-11T04:08:03.951Z,13.90
2019-04-11T04:10:34.210Z,15.85
2019-04-11T04:13:04.988Z,14.13
2019-04-11T04:15:51.578Z,16.32
2019-04-11T04:18:23.910Z,16.82
2019-04-11T04:20:57.639Z,18.40
2019-04-11T04:23:29.445Z,13.83
2019-04-11T04:26:00.862Z,14.28
2019-04-11T04:28:29.491Z,16.45
2019-04-11T04:31:00.089Z,14.78
2019-04-11T04:33:30.396Z,16.02
2019-04-11T04:36:00.209Z,15.00
2019-04-11T04:38:29.649Z,15.32
2019-04-11T04:41:09.958Z,14.25
2019-04-11T04:43:31.565Z,15.63
2019-04-11T04:46:17.327Z,15.80
2019-04-11T04:48:32.173Z,18.87
2019-04-11T04:51:07.297Z,14.20
2019-04-11T04:53:32.522Z,16.73
2019-04-11T04:56:02.711Z,15.72
2019-04-11T04:58:31.752Z,14.38
2019-04-11T05:01:01.934Z,19.17
2019-04-11T05:03:32.015Z,18.30
2019-04-11T05:06:03.366Z,17.20
2019-04-11T05:08:32.549Z,14.10
2019-04-11T05:11:02.257Z,18.52
2019-04-11T05:13:32.293Z,17.62
2019-04-11T05:16:08.569Z,16.30
2019-04-11T05:18:32.142Z,16.00
2019-04-11T05:21:01.151Z,15.93
2019-04-11T05:23:29.847Z,21.05
2019-04-11T05:25:59.978Z,16.70
2019-04-11T05:28:29.798Z,17.67
2019-04-11T05:30:58.468Z,17.80
2019-04-11T05:33:27.453Z,18.75
2019-04-11T05:35:56.388Z,16.30
2019-04-11T05:38:25.311Z,20.23
2019-04-11T05:40:54.596Z,17.20
2019-04-11T05:43:28.066Z,17.15
2019-04-11T05:45:55.073Z,19.20
2019-04-11T05:48:32.216Z,18.73
2019-04-11T05:51:00.871Z,14.87
2019-04-11T05:53:32.771Z,18.10
2019-04-11T05:56:07.106Z,17.27
2019-04-11T05:58:36.687Z,15.75
2019-04-11T06:01:14.518Z,15.60
2019-04-11T06:03:45.370Z,15.13
2019-04-11T06:06:16.252Z,21.12
2019-04-11T06:08:46.057Z,16.48
2019-04-11T06:11:22.159Z,15.75
2019-04-11T06:14:07.286Z,14.53
2019-04-11T06:16:43.613Z,13.90
2019-04-11T06:19:12.373Z,14.50
2019-04-11T06:21:42.666Z,14.65
2019-04-11T06:24:25.901Z,17.40
2019-04-11T06:27:02.382Z,13.68
2019-04-11T06:29:32.727Z,18.02
2019-04-11T06:32:03.535Z,15.58
2019-04-11T06:34:43.783Z,17.35
2019-04-11T06:37:19.943Z,14.47
2019-04-11T06:39:53.958Z,17.32
2019-04-11T06:42:31.727Z,19.95
2019-04-11T06:45:04.607Z,18.98
2019-04-11T06:47:37.825Z,14.95
2019-04-11T06:50:19.457Z,17.07
2019-04-11T06:52:48.793Z,15.13
2019-04-11T06:55:22.465Z,17.00
2019-04-11T06:57:52.729Z,18.70
2019-04-11T07:00:21.732Z,19.15
2019-04-11T07:02:52.923Z,18.30
2019-04-11T07:05:22.730Z,15.83
2019-04-11T07:07:53.631Z,17.87
2019-04-11T07:10:24.618Z,14.18
2019-04-11T07:12:55.982Z,15.18
2019-04-11T07:15:27.206Z,15.88
2019-04-11T07:18:14.013Z,14.90
2019-04-11T07:20:45.580Z,16.32
2019-04-11T07:23:32.940Z,16.65
2019-04-11T07:26:04.486Z,16.70
2019-04-11T07:28:35.752Z,19.42
2019-04-11T07:34:12.773Z,18.55
2019-04-11T07:37:00.262Z,15.48
2019-04-11T07:39:35.369Z,15.18
2019-04-11T07:42:07.059Z,17.75
2019-04-11T07:44:38.540Z,15.72
2019-04-11T07:47:17.274Z,14.20
2019-04-11T07:49:43.241Z,15.55
2019-04-11T07:52:20.448Z,14.83
2019-04-11T07:54:49.177Z,13.53
2019-04-11T07:57:31.314Z,15.15
2019-04-11T08:00:17.656Z,16.23
2019-04-11T08:02:50.322Z,16.37
2019-04-11T08:05:36.554Z,18.30
2019-04-11T08:08:23.739Z,15.78
2019-04-11T08:11:09.495Z,15.80
2019-04-11T08:13:40.799Z,16.10
2019-04-11T08:16:11.077Z,13.78
2019-04-11T08:18:41.358Z,14.43
2019-04-11T08:21:28.304Z,14.33
2019-04-11T08:23:58.578Z,14.75
2019-04-11T08:26:34.410Z,17.00
2019-04-11T08:29:09.295Z,12.60
2019-04-11T08:31:36.121Z,17.15
2019-04-11T08:34:04.979Z,15.60
2019-04-11T08:36:35.276Z,13.90
2019-04-11T08:39:06.837Z,15.95
2019-04-11T08:41:49.649Z,14.20
2019-04-11T08:44:19.423Z,13.72
2019-04-11T08:46:51.043Z,17.35
2019-04-11T08:49:29.091Z,14.65
2019-04-11T08:51:59.988Z,17.17
2019-04-11T08:54:47.971Z,16.50
2019-04-11T08:57:18.284Z,15.88
2019-04-11T08:59:57.714Z,12.77
2019-04-11T09:02:26.913Z,13.27
2019-04-11T09:05:13.107Z,13.53
2019-04-11T09:07:51.952Z,13.57
2019-04-11T09:10:40.609Z,17.47
2019-04-11T09:13:44.199Z,12.87
2019-04-11T09:16:17.263Z,14.20
2019-04-11T09:18:46.157Z,14.97
2019-04-11T09:21:16.387Z,14.40
2019-04-11T09:23:45.986Z,13.80
2019-04-11T09:26:34.008Z,13.93
2019-04-11T09:29:03.873Z,14.10
2019-04-11T09:31:34.194Z,13.53
2019-04-11T09:34:11.280Z,14.10
2019-04-11T09:36:41.847Z,15.77
2019-04-11T09:39:28.904Z,13.87
2019-04-11T09:42:14.909Z,14.30
2019-04-11T09:44:48.932Z,14.33
2019-04-11T09:47:36.252Z,14.77
2019-04-11T09:50:08.082Z,11.73
2019-04-11T09:52:45.220Z,12.97
2019-04-11T09:55:24.178Z,13.77
2019-04-11T09:57:58.646Z,15.07
2019-04-11T10:00:30.446Z,13.93
2019-04-11T10:03:00.865Z,13.30
2019-04-11T10:05:50.292Z,12.73
2019-04-11T10:08:37.276Z,12.33
2019-04-11T10:11:10.437Z,14.37
2019-04-11T10:13:57.567Z,15.13
2019-04-11T10:16:28.368Z,14.07
2019-04-11T10:19:05.515Z,14.43
2019-04-11T10:21:39.479Z,17.53
2019-04-11T10:24:22.450Z,16.17
2019-04-11T10:27:12.291Z,19.60
2019-04-11T10:29:42.626Z,14.23
2019-04-11T10:32:12.927Z,14.83
2019-04-11T10:34:59.718Z,16.33
2019-04-11T10:37:28.255Z,20.53
2019-04-11T10:39:59.845Z,15.93
2019-04-11T10:42:28.861Z,14.60
2019-04-11T10:45:15.298Z,17.57
2019-04-11T10:47:45.006Z,15.33
2019-04-11T10:50:15.855Z,15.87
2019-04-11T10:52:46.778Z,16.37
2019-04-11T10:55:19.838Z,15.57
2019-04-11T10:57:52.558Z,17.40
2019-04-11T11:00:23.034Z,16.70
2019-04-11T11:02:56.359Z,15.37
2019-04-11T11:05:30.437Z,18.33
2019-04-11T11:08:04.709Z,15.63
2019-04-11T11:10:35.473Z,19.00
2019-04-11T11:13:09.539Z,14.63
2019-04-11T11:15:39.881Z,13.97
2019-04-11T11:18:53.879Z,24.47
2019-04-11T11:21:00.328Z,15.80
2019-04-11T11:23:45.464Z,14.67
2019-04-11T11:26:22.626Z,14.63
2019-04-11T11:28:56.790Z,14.93
2019-04-11T11:31:39.049Z,17.80
2019-04-11T11:34:15.671Z,18.37
2019-04-11T11:36:47.973Z,15.03
2019-04-11T11:42:22.175Z,16.77
2019-04-11T11:44:59.330Z,15.63
2019-04-11T11:47:46.109Z,14.37
2019-04-11T11:50:20.101Z,14.47
2019-04-11T11:53:07.360Z,14.00
2019-04-11T11:55:39.506Z,15.30
2019-04-11T11:58:25.938Z,14.90
2019-04-11T12:00:57.828Z,17.77
2019-04-11T12:03:35.091Z,18.73
2019-04-11T12:06:09.586Z,13.97
2019-04-11T12:08:50.940Z,15.57
2019-04-11T12:11:19.857Z,15.17
2019-04-11T12:14:07.640Z,16.93
2019-04-11T12:16:43.994Z,14.07
2019-04-11T12:19:17.997Z,17.43
2019-04-11T12:21:47.634Z,13.43
2019-04-11T12:24:34.425Z,16.13
2019-04-11T12:27:16.741Z,17.07
2019-04-11T12:29:50.823Z,17.27
2019-04-11T12:32:30.583Z,16.73
2019-04-11T12:35:02.071Z,15.30
2019-04-11T12:37:45.435Z,17.30
2019-04-11T12:40:32.274Z,14.17
2019-04-11T12:43:02.564Z,14.73
2019-04-11T12:45:35.296Z,17.60
2019-04-11T12:48:04.850Z,16.90
2019-04-11T12:50:35.128Z,15.20
2019-04-11T12:53:05.669Z,19.33
2019-04-11T12:55:36.050Z,12.83
2019-04-11T12:58:21.373Z,16.73
2019-04-11T13:01:07.981Z,15.20
2019-04-11T13:03:50.272Z,14.63
2019-04-11T13:06:35.279Z,13.93
2019-04-11T13:09:01.120Z,15.13
2019-04-11T13:11:31.358Z,16.23
2019-04-11T13:14:19.842Z,15.80
2019-04-11T13:16:50.066Z,15.00
2019-04-11T13:19:20.272Z,11.03
2019-04-11T13:21:53.485Z,13.97
2019-04-11T13:24:23.775Z,13.20
2019-04-11T13:27:10.457Z,14.00
2019-04-11T13:29:40.735Z,14.40
2019-04-11T13:32:27.088Z,13.03
2019-04-11T13:34:57.326Z,12.17
2019-04-11T13:37:43.972Z,18.33
2019-04-11T13:40:17.142Z,13.50
2019-04-11T13:42:59.364Z,14.00
2019-04-11T13:45:29.913Z,17.30
2019-04-11T13:48:16.358Z,15.07
2019-04-11T13:50:45.370Z,15.40
2019-04-11T13:53:31.821Z,12.00
2019-04-11T13:56:00.461Z,15.80
2019-04-11T13:58:30.777Z,13.67
2019-04-11T14:00:59.700Z,14.77
2019-04-11T14:03:47.599Z,15.90
2019-04-11T14:06:19.103Z,17.97
2019-04-11T14:08:49.320Z,14.73
2019-04-11T14:11:19.666Z,16.53
2019-04-11T14:13:48.262Z,14.43
2019-04-11T14:16:24.141Z,13.97
2019-04-11T14:18:54.364Z,14.87
2019-04-11T14:21:24.635Z,15.23
2019-04-11T14:24:11.663Z,14.30
2019-04-11T14:26:42.096Z,13.43
2019-04-11T14:29:24.139Z,13.70
2019-04-11T14:31:54.670Z,16.13
2019-04-11T14:34:41.540Z,16.37
2019-04-11T14:37:11.748Z,11.53
2019-04-11T14:39:42.027Z,14.17
2019-04-11T14:42:21.198Z,13.10
2019-04-11T14:44:51.441Z,17.77
2019-04-11T14:47:27.629Z,12.77
2019-04-11T14:49:58.285Z,15.90
2019-04-11T14:52:34.551Z,15.13
2019-04-11T14:55:03.579Z,16.70
2019-04-11T14:57:53.735Z,13.57
2019-04-11T15:00:26.832Z,13.47
2019-04-11T15:03:12.393Z,15.13
2019-04-11T15:05:48.424Z,11.13
2019-04-11T15:08:21.591Z,13.77
2019-04-11T15:10:57.772Z,13.57
2019-04-11T15:13:28.035Z,10.93
2019-04-11T15:15:58.255Z,14.57
2019-04-11T15:18:27.507Z,14.23
2019-04-11T15:20:57.681Z,18.97
2019-04-11T15:23:27.899Z,15.70
2019-04-11T15:26:14.666Z,13.30
2019-04-11T15:28:47.431Z,10.80
2019-04-11T15:31:20.452Z,14.00
2019-04-11T15:33:50.698Z,13.33
2019-04-11T15:36:20.902Z,12.43
2019-04-11T15:38:51.127Z,15.93
2019-04-11T15:41:19.696Z,10.97
2019-04-11T15:43:49.911Z,12.07
2019-04-11T15:46:20.200Z,11.90
2019-04-11T15:48:53.837Z,13.37
2019-04-11T15:51:24.793Z,12.03
2019-04-11T15:54:11.568Z,12.80
2019-04-11T15:56:44.542Z,11.40
2019-04-11T15:59:14.748Z,11.57
2019-04-11T16:02:01.090Z,12.17
2019-04-11T16:04:31.297Z,13.17
2019-04-11T16:07:11.904Z,14.60
2019-04-11T16:09:42.748Z,11.93
2019-04-11T16:12:18.715Z,10.93
2019-04-11T16:14:52.135Z,12.93
2019-04-11T16:17:38.624Z,12.93
2019-04-11T16:20:08.848Z,12.20
2019-04-11T16:22:55.311Z,12.90
2019-04-11T16:25:28.850Z,16.93
2019-04-11T16:28:07.232Z,12.00
2019-04-11T16:30:39.568Z,14.40
2019-04-11T16:33:09.147Z,13.87
2019-04-11T16:35:41.846Z,10.70
2019-04-11T16:38:19.106Z,14.60
2019-04-11T16:41:05.863Z,15.27
2019-04-11T16:43:34.558Z,12.23
2019-04-11T16:46:07.449Z,10.63
2019-04-11T16:48:36.102Z,11.00
2019-04-11T16:51:05.980Z,10.83
2019-04-11T16:53:34.733Z,12.13
2019-04-11T16:56:03.354Z,13.13
2019-04-11T16:58:32.004Z,10.80
2019-04-11T17:01:00.579Z,11.90
2019-04-11T17:03:29.552Z,13.10
2019-04-11T17:05:59.750Z,13.20
2019-04-11T17:08:36.261Z,10.90
2019-04-11T17:11:09.451Z,11.87
2019-04-11T17:13:38.139Z,11.90
2019-04-11T17:16:08.486Z,14.13
2019-04-11T17:18:37.074Z,16.53
2019-04-11T17:21:07.881Z,13.10
2019-04-11T17:23:36.476Z,12.50
2019-04-11T17:26:06.788Z,13.67
2019-04-11T17:28:35.945Z,14.23
2019-04-11T17:31:04.625Z,15.30
2019-04-11T17:33:33.274Z,17.87
2019-04-11T17:36:02.972Z,13.13
2019-04-11T17:38:31.775Z,11.10
2019-04-11T17:41:00.360Z,14.50
2019-04-11T17:43:28.937Z,13.83
2019-04-11T17:45:57.727Z,11.83
2019-04-11T17:48:26.431Z,14.13
2019-04-11T17:50:55.067Z,16.83
2019-04-11T17:53:24.879Z,13.17
2019-04-11T17:55:54.198Z,15.80
2019-04-11T17:58:26.926Z,17.53
2019-04-11T18:00:55.506Z,14.70
2019-04-11T18:03:24.108Z,13.70
2019-04-11T18:05:52.689Z,15.57
2019-04-11T18:08:21.264Z,18.73
2019-04-11T18:10:50.207Z,15.10
2019-04-11T18:13:18.862Z,14.63
2019-04-11T18:15:47.459Z,14.97
2019-04-11T18:18:16.353Z,17.93
2019-04-11T18:20:45.084Z,14.57
2019-04-11T18:23:13.727Z,19.27
2019-04-11T18:25:42.368Z,17.13
2019-04-11T18:28:11.019Z,15.73
2019-04-11T18:30:39.583Z,15.87
2019-04-11T18:33:08.242Z,15.80
2019-04-11T18:35:36.819Z,17.10
2019-04-11T18:38:05.453Z,13.13
2019-04-11T18:40:34.124Z,20.33
2019-04-11T18:43:02.864Z,15.83
2019-04-11T18:45:31.552Z,15.33
2019-04-11T18:48:00.220Z,16.30
2019-04-11T18:50:29.266Z,16.63
2019-04-11T18:52:59.501Z,13.70
2019-04-11T18:55:28.229Z,16.60
2019-04-11T18:57:56.827Z,14.27
2019-04-11T19:00:26.535Z,16.07
2019-04-11T19:02:55.177Z,16.93
2019-04-11T19:05:28.796Z,18.50
2019-04-11T19:07:54.183Z,17.33
2019-04-11T19:10:22.924Z,17.47
2019-04-11T19:12:51.574Z,16.00
2019-04-11T19:15:20.357Z,17.93
2019-04-11T19:17:49.326Z,21.07
2019-04-11T19:20:19.118Z,20.03
2019-04-11T19:22:48.496Z,19.13
2019-04-11T19:25:17.539Z,18.60
2019-04-11T19:27:49.998Z,18.37
2019-04-11T19:30:16.523Z,22.00
2019-04-11T19:32:45.180Z,20.97
2019-04-11T19:35:13.825Z,18.93
2019-04-11T19:37:42.754Z,22.13
2019-04-11T19:40:16.124Z,20.43
2019-04-11T19:42:42.410Z,19.67
2019-04-11T19:45:11.116Z,18.67
2019-04-11T19:47:39.694Z,22.80
2019-04-11T19:50:08.778Z,18.77
2019-04-11T19:52:45.256Z,19.70
2019-04-11T19:55:19.330Z,17.67
2019-04-11T19:57:48.033Z,21.57
2019-04-11T20:00:16.714Z,22.97
2019-04-11T20:02:45.316Z,21.57
2019-04-11T20:05:13.967Z,20.23
2019-04-11T20:07:42.606Z,22.43
2019-04-11T20:10:11.326Z,21.97
2019-04-11T20:12:39.900Z,20.03
2019-04-11T20:15:08.905Z,21.70
2019-04-11T20:17:44.363Z,19.93
2019-04-11T20:20:08.530Z,19.90
2019-04-11T20:22:39.683Z,21.23
2019-04-11T20:25:07.482Z,14.97
2019-04-11T20:27:36.507Z,22.93
2019-04-11T20:30:08.485Z,20.33
2019-04-11T20:32:37.456Z,17.57
2019-04-11T20:35:09.507Z,21.20
2019-04-11T20:37:39.566Z,21.47
2019-04-11T20:40:07.987Z,20.67
2019-04-11T20:42:36.631Z,20.57
2019-04-11T20:45:07.217Z,22.20
2019-04-11T20:47:35.885Z,22.03
2019-04-11T20:50:07.555Z,22.10
2019-04-11T20:52:36.281Z,20.23
2019-04-11T20:55:08.904Z,21.70
2019-04-11T20:57:36.845Z,22.52
2019-04-11T21:00:12.102Z,18.63
2019-04-11T21:02:38.833Z,24.50
2019-04-11T21:05:07.500Z,23.75
2019-04-11T21:07:36.083Z,18.07
2019-04-11T21:10:05.938Z,22.40
2019-04-11T21:12:36.974Z,26.33
2019-04-11T21:15:07.363Z,20.72
2019-04-11T21:17:35.889Z,24.05
2019-04-11T21:20:07.187Z,22.10
2019-04-11T21:22:35.849Z,24.17
2019-04-11T21:25:06.070Z,20.87
2019-04-11T21:27:34.784Z,21.13
2019-04-11T21:30:04.061Z,22.27
2019-04-11T21:32:32.813Z,21.87
2019-04-11T21:35:02.381Z,22.93
2019-04-11T21:37:31.577Z,19.85
2019-04-11T21:40:00.523Z,21.87
2019-04-11T21:42:29.088Z,22.97
2019-04-11T21:44:57.696Z,22.53
2019-04-11T21:47:26.680Z,24.33
2019-04-11T21:49:55.273Z,23.30
2019-04-11T21:52:24.132Z,22.93
2019-04-11T21:54:52.862Z,29.63
2019-04-11T21:57:22.093Z,21.15
2019-04-11T21:59:52.146Z,27.32
2019-04-11T22:02:24.034Z,22.90
2019-04-11T22:04:51.335Z,25.72
2019-04-11T22:07:19.909Z,24.30
2019-04-11T22:09:48.632Z,28.87
2019-04-11T22:12:17.358Z,24.20
2019-04-11T22:14:46.004Z,24.95
2019-04-11T22:17:15.940Z,27.87
2019-04-11T22:19:45.892Z,21.80
2019-04-11T22:22:15.027Z,22.77
2019-04-11T22:24:44.965Z,24.83
2019-04-11T22:27:13.619Z,21.65
2019-04-11T22:29:42.498Z,25.10
2019-04-11T22:32:11.244Z,29.18
2019-04-11T22:34:41.595Z,25.45
2019-04-11T22:37:10.276Z,26.55
2019-04-11T22:39:38.994Z,26.77
2019-04-11T22:42:07.998Z,28.95
2019-04-11T22:44:38.082Z,21.82
2019-04-11T22:47:08.117Z,29.02
2019-04-11T22:49:39.371Z,23.12
2019-04-11T22:52:07.534Z,22.62
2019-04-11T22:54:36.590Z,31.30
2019-04-11T22:57:05.188Z,23.30
2019-04-11T22:59:33.786Z,23.12
2019-04-11T23:02:16.877Z,27.60
2019-04-11T23:04:46.942Z,27.65
2019-04-11T23:07:15.047Z,27.95
2019-04-11T23:09:43.886Z,28.10
2019-04-11T23:12:12.755Z,28.00
2019-04-11T23:14:45.589Z,24.37
2019-04-11T23:17:14.184Z,24.15
2019-04-11T23:19:44.090Z,22.27
2019-04-11T23:22:13.359Z,24.35
2019-04-11T23:24:42.012Z,28.83
2019-04-11T23:27:10.947Z,24.63
2019-04-11T23:29:39.510Z,23.12
2019-04-11T23:32:08.311Z,22.52
2019-04-11T23:34:36.871Z,21.45
2019-04-11T23:37:05.573Z,23.38
2019-04-11T23:39:34.480Z,21.70
2019-04-11T23:42:03.209Z,22.42
2019-04-11T23:44:31.794Z,21.85
2019-04-11T23:47:00.323Z,22.00
2019-04-11T23:49:28.897Z,20.35
2019-04-11T23:51:57.510Z,21.85
2019-04-11T23:54:28.937Z,20.32
2019-04-11T23:56:56.383Z,24.07
2019-04-11T23:59:24.940Z,22.75
